sensor_id;sensor_type;location;lat;lon;timestamp;P1;durP1;ratioP1;P2;durP2;ratioP2
85701;SDS011;76139;50.888;3.882;2024-03-06T00:00:09;9.13;;;5.50;;
85701;SDS011;76139;50.888;3.882;2024-03-06T00:02:35;9.90;;;5.40;;
85701;SDS011;76139;50.888;3.882;2024-03-06T00:05:01;9.02;;;5.80;;
85701;SDS011;76139;50.888;3.882;2024-03-06T00:07:27;9.32;;;6.40;;
85701;SDS011;76139;50.888;3.882;2024-03-06T00:09:53;9.13;;;6.10;;
85701;SDS011;76139;50.888;3.882;2024-03-06T00:12:19;8.82;;;6.03;;
85701;SDS011;76139;50.888;3.882;2024-03-06T00:14:45;12.75;;;6.50;;
85701;SDS011;76139;50.888;3.882;2024-03-06T00:17:10;8.75;;;6.85;;
85701;SDS011;76139;50.888;3.882;2024-03-06T00:19:36;9.65;;;6.13;;
85701;SDS011;76139;50.888;3.882;2024-03-06T00:22:02;9.43;;;6.28;;
85701;SDS011;76139;50.888;3.882;2024-03-06T00:24:28;8.70;;;6.35;;
85701;SDS011;76139;50.888;3.882;2024-03-06T00:26:54;10.77;;;6.88;;
85701;SDS011;76139;50.888;3.882;2024-03-06T00:29:20;10.32;;;6.63;;
85701;SDS011;76139;50.888;3.882;2024-03-06T00:31:46;10.20;;;6.85;;
85701;SDS011;76139;50.888;3.882;2024-03-06T00:34:12;10.70;;;6.88;;
85701;SDS011;76139;50.888;3.882;2024-03-06T00:36:42;10.57;;;6.35;;
85701;SDS011;76139;50.888;3.882;2024-03-06T00:39:08;10.18;;;6.38;;
85701;SDS011;76139;50.888;3.882;2024-03-06T00:41:35;10.50;;;6.90;;
85701;SDS011;76139;50.888;3.882;2024-03-06T00:44:01;10.18;;;6.35;;
85701;SDS011;76139;50.888;3.882;2024-03-06T00:46:27;11.48;;;6.95;;
85701;SDS011;76139;50.888;3.882;2024-03-06T00:48:53;11.40;;;7.10;;
85701;SDS011;76139;50.888;3.882;2024-03-06T00:51:19;10.38;;;6.40;;
85701;SDS011;76139;50.888;3.882;2024-03-06T00:53:45;11.10;;;7.43;;
85701;SDS011;76139;50.888;3.882;2024-03-06T00:56:10;11.02;;;7.45;;
85701;SDS011;76139;50.888;3.882;2024-03-06T00:58:36;10.15;;;7.35;;
85701;SDS011;76139;50.888;3.882;2024-03-06T01:01:02;11.13;;;6.65;;
85701;SDS011;76139;50.888;3.882;2024-03-06T01:03:28;10.80;;;7.78;;
85701;SDS011;76139;50.888;3.882;2024-03-06T01:05:53;11.70;;;7.10;;
85701;SDS011;76139;50.888;3.882;2024-03-06T01:08:21;11.40;;;7.57;;
85701;SDS011;76139;50.888;3.882;2024-03-06T01:10:50;10.10;;;6.72;;
85701;SDS011;76139;50.888;3.882;2024-03-06T01:13:16;12.00;;;7.50;;
85701;SDS011;76139;50.888;3.882;2024-03-06T01:15:43;12.00;;;7.68;;
85701;SDS011;76139;50.888;3.882;2024-03-06T01:18:09;12.43;;;7.88;;
85701;SDS011;76139;50.888;3.882;2024-03-06T01:20:35;11.02;;;7.80;;
85701;SDS011;76139;50.888;3.882;2024-03-06T01:23:01;10.68;;;7.63;;
85701;SDS011;76139;50.888;3.882;2024-03-06T01:25:27;10.95;;;7.40;;
85701;SDS011;76139;50.888;3.882;2024-03-06T01:27:52;10.63;;;6.85;;
85701;SDS011;76139;50.888;3.882;2024-03-06T01:30:18;8.88;;;6.45;;
85701;SDS011;76139;50.888;3.882;2024-03-06T01:32:44;9.98;;;6.93;;
85701;SDS011;76139;50.888;3.882;2024-03-06T01:35:10;11.05;;;7.72;;
85701;SDS011;76139;50.888;3.882;2024-03-06T01:37:36;12.45;;;7.43;;
85701;SDS011;76139;50.888;3.882;2024-03-06T01:40:01;10.85;;;7.43;;
85701;SDS011;76139;50.888;3.882;2024-03-06T01:42:30;11.90;;;7.35;;
85701;SDS011;76139;50.888;3.882;2024-03-06T01:44:55;10.95;;;7.60;;
85701;SDS011;76139;50.888;3.882;2024-03-06T01:47:21;10.55;;;7.18;;
85701;SDS011;76139;50.888;3.882;2024-03-06T01:49:47;11.57;;;8.07;;
85701;SDS011;76139;50.888;3.882;2024-03-06T01:52:14;13.35;;;8.82;;
85701;SDS011;76139;50.888;3.882;2024-03-06T01:54:42;13.45;;;8.18;;
85701;SDS011;76139;50.888;3.882;2024-03-06T01:57:09;12.93;;;8.48;;
85701;SDS011;76139;50.888;3.882;2024-03-06T01:59:38;11.57;;;8.32;;
85701;SDS011;76139;50.888;3.882;2024-03-06T02:02:05;13.23;;;8.30;;
85701;SDS011;76139;50.888;3.882;2024-03-06T02:04:32;14.40;;;9.23;;
85701;SDS011;76139;50.888;3.882;2024-03-06T02:06:58;14.65;;;8.95;;
85701;SDS011;76139;50.888;3.882;2024-03-06T02:09:25;14.60;;;8.38;;
85701;SDS011;76139;50.888;3.882;2024-03-06T02:11:51;13.20;;;8.60;;
85701;SDS011;76139;50.888;3.882;2024-03-06T02:14:17;15.13;;;9.30;;
85701;SDS011;76139;50.888;3.882;2024-03-06T02:16:42;12.63;;;8.90;;
85701;SDS011;76139;50.888;3.882;2024-03-06T02:19:08;12.40;;;8.52;;
85701;SDS011;76139;50.888;3.882;2024-03-06T02:21:34;12.90;;;9.05;;
85701;SDS011;76139;50.888;3.882;2024-03-06T02:24:00;15.27;;;9.35;;
85701;SDS011;76139;50.888;3.882;2024-03-06T02:26:26;16.70;;;9.82;;
85701;SDS011;76139;50.888;3.882;2024-03-06T02:28:52;13.82;;;10.00;;
85701;SDS011;76139;50.888;3.882;2024-03-06T02:31:20;15.00;;;8.95;;
85701;SDS011;76139;50.888;3.882;2024-03-06T02:33:46;13.88;;;9.18;;
85701;SDS011;76139;50.888;3.882;2024-03-06T02:36:13;12.38;;;9.15;;
85701;SDS011;76139;50.888;3.882;2024-03-06T02:38:39;15.48;;;9.75;;
85701;SDS011;76139;50.888;3.882;2024-03-06T02:41:05;14.27;;;9.13;;
85701;SDS011;76139;50.888;3.882;2024-03-06T02:43:32;12.77;;;8.68;;
85701;SDS011;76139;50.888;3.882;2024-03-06T02:45:58;13.50;;;9.52;;
85701;SDS011;76139;50.888;3.882;2024-03-06T02:48:24;15.00;;;9.57;;
85701;SDS011;76139;50.888;3.882;2024-03-06T02:50:50;13.23;;;9.02;;
85701;SDS011;76139;50.888;3.882;2024-03-06T02:53:16;14.52;;;9.88;;
85701;SDS011;76139;50.888;3.882;2024-03-06T02:55:41;13.88;;;9.80;;
85701;SDS011;76139;50.888;3.882;2024-03-06T02:58:07;15.68;;;9.75;;
85701;SDS011;76139;50.888;3.882;2024-03-06T03:00:33;13.50;;;9.40;;
85701;SDS011;76139;50.888;3.882;2024-03-06T03:02:58;12.95;;;9.38;;
85701;SDS011;76139;50.888;3.882;2024-03-06T03:05:24;13.18;;;9.13;;
85701;SDS011;76139;50.888;3.882;2024-03-06T03:07:50;15.15;;;9.93;;
85701;SDS011;76139;50.888;3.882;2024-03-06T03:10:16;11.68;;;8.68;;
85701;SDS011;76139;50.888;3.882;2024-03-06T03:12:42;13.27;;;9.02;;
85701;SDS011;76139;50.888;3.882;2024-03-06T03:15:08;13.70;;;9.68;;
85701;SDS011;76139;50.888;3.882;2024-03-06T03:17:34;10.85;;;8.35;;
85701;SDS011;76139;50.888;3.882;2024-03-06T03:20:00;14.73;;;9.68;;
85701;SDS011;76139;50.888;3.882;2024-03-06T03:22:35;13.77;;;9.35;;
85701;SDS011;76139;50.888;3.882;2024-03-06T03:25:08;14.52;;;9.65;;
85701;SDS011;76139;50.888;3.882;2024-03-06T03:27:37;14.98;;;9.20;;
85701;SDS011;76139;50.888;3.882;2024-03-06T03:30:06;12.27;;;9.13;;
85701;SDS011;76139;50.888;3.882;2024-03-06T03:32:33;14.75;;;8.98;;
85701;SDS011;76139;50.888;3.882;2024-03-06T03:34:59;12.35;;;8.55;;
85701;SDS011;76139;50.888;3.882;2024-03-06T03:37:25;14.50;;;9.30;;
85701;SDS011;76139;50.888;3.882;2024-03-06T03:39:50;12.95;;;8.85;;
85701;SDS011;76139;50.888;3.882;2024-03-06T03:42:16;12.85;;;9.25;;
85701;SDS011;76139;50.888;3.882;2024-03-06T03:44:42;12.75;;;8.90;;
85701;SDS011;76139;50.888;3.882;2024-03-06T03:47:08;12.57;;;8.98;;
85701;SDS011;76139;50.888;3.882;2024-03-06T03:49:34;12.65;;;8.80;;
85701;SDS011;76139;50.888;3.882;2024-03-06T03:52:00;13.30;;;10.25;;
85701;SDS011;76139;50.888;3.882;2024-03-06T03:54:26;15.25;;;10.18;;
85701;SDS011;76139;50.888;3.882;2024-03-06T03:56:51;15.75;;;9.30;;
85701;SDS011;76139;50.888;3.882;2024-03-06T03:59:18;13.52;;;9.73;;
85701;SDS011;76139;50.888;3.882;2024-03-06T04:01:47;14.20;;;8.95;;
85701;SDS011;76139;50.888;3.882;2024-03-06T04:04:13;14.30;;;9.45;;
85701;SDS011;76139;50.888;3.882;2024-03-06T04:06:38;13.75;;;8.60;;
85701;SDS011;76139;50.888;3.882;2024-03-06T04:09:04;12.63;;;9.10;;
85701;SDS011;76139;50.888;3.882;2024-03-06T04:11:30;14.63;;;9.32;;
85701;SDS011;76139;50.888;3.882;2024-03-06T04:13:59;13.82;;;9.40;;
85701;SDS011;76139;50.888;3.882;2024-03-06T04:16:24;13.50;;;8.15;;
85701;SDS011;76139;50.888;3.882;2024-03-06T04:18:51;13.75;;;9.77;;
85701;SDS011;76139;50.888;3.882;2024-03-06T04:21:16;14.27;;;9.48;;
85701;SDS011;76139;50.888;3.882;2024-03-06T04:23:43;15.13;;;9.48;;
85701;SDS011;76139;50.888;3.882;2024-03-06T04:26:09;13.18;;;8.70;;
85701;SDS011;76139;50.888;3.882;2024-03-06T04:28:34;13.88;;;8.65;;
85701;SDS011;76139;50.888;3.882;2024-03-06T04:31:00;14.98;;;9.55;;
85701;SDS011;76139;50.888;3.882;2024-03-06T04:33:26;14.48;;;9.10;;
85701;SDS011;76139;50.888;3.882;2024-03-06T04:35:51;14.93;;;10.05;;
85701;SDS011;76139;50.888;3.882;2024-03-06T04:38:17;13.82;;;9.60;;
85701;SDS011;76139;50.888;3.882;2024-03-06T04:40:43;13.43;;;9.40;;
85701;SDS011;76139;50.888;3.882;2024-03-06T04:43:10;14.65;;;9.45;;
85701;SDS011;76139;50.888;3.882;2024-03-06T04:45:36;13.75;;;9.77;;
85701;SDS011;76139;50.888;3.882;2024-03-06T04:48:01;16.88;;;10.13;;
85701;SDS011;76139;50.888;3.882;2024-03-06T04:50:27;14.35;;;9.57;;
85701;SDS011;76139;50.888;3.882;2024-03-06T04:52:53;15.43;;;11.05;;
85701;SDS011;76139;50.888;3.882;2024-03-06T04:55:19;16.15;;;10.10;;
85701;SDS011;76139;50.888;3.882;2024-03-06T04:57:48;16.63;;;11.00;;
85701;SDS011;76139;50.888;3.882;2024-03-06T05:00:14;15.40;;;10.43;;
85701;SDS011;76139;50.888;3.882;2024-03-06T05:02:40;16.20;;;10.15;;
85701;SDS011;76139;50.888;3.882;2024-03-06T05:05:07;18.90;;;11.48;;
85701;SDS011;76139;50.888;3.882;2024-03-06T05:07:33;19.67;;;11.50;;
85701;SDS011;76139;50.888;3.882;2024-03-06T05:09:59;16.77;;;11.02;;
85701;SDS011;76139;50.888;3.882;2024-03-06T05:12:26;19.27;;;12.82;;
85701;SDS011;76139;50.888;3.882;2024-03-06T05:14:52;18.23;;;12.10;;
85701;SDS011;76139;50.888;3.882;2024-03-06T05:17:19;21.65;;;12.40;;
85701;SDS011;76139;50.888;3.882;2024-03-06T05:19:45;17.73;;;11.77;;
85701;SDS011;76139;50.888;3.882;2024-03-06T05:22:12;15.60;;;10.40;;
85701;SDS011;76139;50.888;3.882;2024-03-06T05:24:38;18.63;;;10.75;;
85701;SDS011;76139;50.888;3.882;2024-03-06T05:27:04;17.35;;;10.45;;
85701;SDS011;76139;50.888;3.882;2024-03-06T05:29:30;17.17;;;11.02;;
85701;SDS011;76139;50.888;3.882;2024-03-06T05:31:56;14.18;;;10.43;;
85701;SDS011;76139;50.888;3.882;2024-03-06T05:34:22;15.75;;;9.93;;
85701;SDS011;76139;50.888;3.882;2024-03-06T05:36:48;14.43;;;9.55;;
85701;SDS011;76139;50.888;3.882;2024-03-06T05:39:14;15.70;;;10.20;;
85701;SDS011;76139;50.888;3.882;2024-03-06T05:41:40;15.35;;;9.80;;
85701;SDS011;76139;50.888;3.882;2024-03-06T05:44:07;15.30;;;10.25;;
85701;SDS011;76139;50.888;3.882;2024-03-06T05:46:33;14.20;;;9.70;;
85701;SDS011;76139;50.888;3.882;2024-03-06T05:48:58;12.35;;;8.55;;
85701;SDS011;76139;50.888;3.882;2024-03-06T05:51:24;14.98;;;9.05;;
85701;SDS011;76139;50.888;3.882;2024-03-06T05:53:50;12.52;;;9.02;;
85701;SDS011;76139;50.888;3.882;2024-03-06T05:56:19;13.55;;;8.88;;
85701;SDS011;76139;50.888;3.882;2024-03-06T05:58:45;11.88;;;8.57;;
85701;SDS011;76139;50.888;3.882;2024-03-06T06:01:17;14.63;;;9.60;;
85701;SDS011;76139;50.888;3.882;2024-03-06T06:03:46;15.95;;;10.10;;
85701;SDS011;76139;50.888;3.882;2024-03-06T06:06:14;15.02;;;11.23;;
85701;SDS011;76139;50.888;3.882;2024-03-06T06:08:41;19.20;;;13.38;;
85701;SDS011;76139;50.888;3.882;2024-03-06T06:11:07;20.45;;;12.88;;
85701;SDS011;76139;50.888;3.882;2024-03-06T06:13:33;18.35;;;11.32;;
85701;SDS011;76139;50.888;3.882;2024-03-06T06:15:58;17.60;;;11.02;;
85701;SDS011;76139;50.888;3.882;2024-03-06T06:18:27;17.48;;;11.73;;
85701;SDS011;76139;50.888;3.882;2024-03-06T06:20:53;17.70;;;11.23;;
85701;SDS011;76139;50.888;3.882;2024-03-06T06:23:19;15.15;;;10.50;;
85701;SDS011;76139;50.888;3.882;2024-03-06T06:25:45;18.70;;;11.68;;
85701;SDS011;76139;50.888;3.882;2024-03-06T06:28:11;21.70;;;12.32;;
85701;SDS011;76139;50.888;3.882;2024-03-06T06:30:37;20.58;;;12.43;;
85701;SDS011;76139;50.888;3.882;2024-03-06T06:33:03;18.88;;;12.32;;
85701;SDS011;76139;50.888;3.882;2024-03-06T06:35:29;20.33;;;12.68;;
85701;SDS011;76139;50.888;3.882;2024-03-06T06:37:55;22.17;;;13.95;;
85701;SDS011;76139;50.888;3.882;2024-03-06T06:40:21;18.33;;;12.20;;
85701;SDS011;76139;50.888;3.882;2024-03-06T06:42:47;18.38;;;11.75;;
85701;SDS011;76139;50.888;3.882;2024-03-06T06:45:17;19.05;;;13.07;;
85701;SDS011;76139;50.888;3.882;2024-03-06T06:47:44;17.83;;;12.07;;
85701;SDS011;76139;50.888;3.882;2024-03-06T06:50:10;18.30;;;11.55;;
85701;SDS011;76139;50.888;3.882;2024-03-06T06:52:39;15.27;;;10.45;;
85701;SDS011;76139;50.888;3.882;2024-03-06T06:55:06;17.73;;;11.73;;
85701;SDS011;76139;50.888;3.882;2024-03-06T06:57:32;14.43;;;9.65;;
85701;SDS011;76139;50.888;3.882;2024-03-06T06:59:58;17.50;;;11.13;;
85701;SDS011;76139;50.888;3.882;2024-03-06T07:02:25;14.73;;;10.07;;
85701;SDS011;76139;50.888;3.882;2024-03-06T07:04:51;15.23;;;10.45;;
85701;SDS011;76139;50.888;3.882;2024-03-06T07:07:17;15.98;;;10.82;;
85701;SDS011;76139;50.888;3.882;2024-03-06T07:09:43;16.20;;;10.80;;
85701;SDS011;76139;50.888;3.882;2024-03-06T07:12:09;15.48;;;10.73;;
85701;SDS011;76139;50.888;3.882;2024-03-06T07:14:35;15.27;;;10.30;;
85701;SDS011;76139;50.888;3.882;2024-03-06T07:17:00;15.18;;;9.93;;
85701;SDS011;76139;50.888;3.882;2024-03-06T07:19:26;14.60;;;9.73;;
85701;SDS011;76139;50.888;3.882;2024-03-06T07:21:52;13.73;;;9.55;;
85701;SDS011;76139;50.888;3.882;2024-03-06T07:24:18;15.52;;;9.73;;
85701;SDS011;76139;50.888;3.882;2024-03-06T07:26:44;14.43;;;10.07;;
85701;SDS011;76139;50.888;3.882;2024-03-06T07:29:10;13.75;;;9.88;;
85701;SDS011;76139;50.888;3.882;2024-03-06T07:31:42;11.98;;;8.98;;
85701;SDS011;76139;50.888;3.882;2024-03-06T07:34:09;14.45;;;10.23;;
85701;SDS011;76139;50.888;3.882;2024-03-06T07:36:35;14.45;;;10.25;;
85701;SDS011;76139;50.888;3.882;2024-03-06T07:39:01;15.63;;;9.32;;
85701;SDS011;76139;50.888;3.882;2024-03-06T07:41:27;11.77;;;8.93;;
85701;SDS011;76139;50.888;3.882;2024-03-06T07:43:53;13.75;;;9.15;;
85701;SDS011;76139;50.888;3.882;2024-03-06T07:46:19;11.48;;;8.25;;
85701;SDS011;76139;50.888;3.882;2024-03-06T07:48:45;13.05;;;8.88;;
85701;SDS011;76139;50.888;3.882;2024-03-06T07:51:11;12.48;;;8.32;;
85701;SDS011;76139;50.888;3.882;2024-03-06T07:53:36;11.55;;;8.20;;
85701;SDS011;76139;50.888;3.882;2024-03-06T07:56:03;10.57;;;7.78;;
85701;SDS011;76139;50.888;3.882;2024-03-06T07:58:29;11.48;;;7.40;;
85701;SDS011;76139;50.888;3.882;2024-03-06T08:00:55;9.73;;;7.22;;
85701;SDS011;76139;50.888;3.882;2024-03-06T08:03:21;9.70;;;6.95;;
85701;SDS011;76139;50.888;3.882;2024-03-06T08:05:51;10.95;;;7.60;;
85701;SDS011;76139;50.888;3.882;2024-03-06T08:08:18;12.10;;;7.60;;
85701;SDS011;76139;50.888;3.882;2024-03-06T08:10:43;12.02;;;7.70;;
85701;SDS011;76139;50.888;3.882;2024-03-06T08:13:13;11.00;;;8.25;;
85701;SDS011;76139;50.888;3.882;2024-03-06T08:15:39;9.27;;;7.03;;
85701;SDS011;76139;50.888;3.882;2024-03-06T08:18:05;11.23;;;7.38;;
85701;SDS011;76139;50.888;3.882;2024-03-06T08:20:31;10.55;;;6.80;;
85701;SDS011;76139;50.888;3.882;2024-03-06T08:22:58;9.35;;;6.72;;
85701;SDS011;76139;50.888;3.882;2024-03-06T08:25:24;10.88;;;6.50;;
85701;SDS011;76139;50.888;3.882;2024-03-06T08:27:50;8.43;;;6.25;;
85701;SDS011;76139;50.888;3.882;2024-03-06T08:30:15;12.85;;;7.30;;
85701;SDS011;76139;50.888;3.882;2024-03-06T08:32:41;9.43;;;6.68;;
85701;SDS011;76139;50.888;3.882;2024-03-06T08:35:09;10.15;;;7.00;;
85701;SDS011;76139;50.888;3.882;2024-03-06T08:37:40;10.13;;;7.05;;
85701;SDS011;76139;50.888;3.882;2024-03-06T08:40:07;10.20;;;6.72;;
85701;SDS011;76139;50.888;3.882;2024-03-06T08:42:35;9.65;;;6.93;;
85701;SDS011;76139;50.888;3.882;2024-03-06T08:45:01;10.32;;;6.85;;
85701;SDS011;76139;50.888;3.882;2024-03-06T08:47:27;9.68;;;6.70;;
85701;SDS011;76139;50.888;3.882;2024-03-06T08:49:53;9.02;;;6.35;;
85701;SDS011;76139;50.888;3.882;2024-03-06T08:52:19;9.30;;;6.68;;
85701;SDS011;76139;50.888;3.882;2024-03-06T08:54:46;11.57;;;7.03;;
85701;SDS011;76139;50.888;3.882;2024-03-06T08:57:12;9.70;;;6.65;;
85701;SDS011;76139;50.888;3.882;2024-03-06T08:59:37;10.55;;;6.65;;
85701;SDS011;76139;50.888;3.882;2024-03-06T09:02:13;9.38;;;6.78;;
85701;SDS011;76139;50.888;3.882;2024-03-06T09:04:43;9.32;;;6.50;;
85701;SDS011;76139;50.888;3.882;2024-03-06T09:07:10;8.77;;;6.55;;
85701;SDS011;76139;50.888;3.882;2024-03-06T09:09:36;8.50;;;6.05;;
85701;SDS011;76139;50.888;3.882;2024-03-06T09:12:06;10.02;;;6.97;;
85701;SDS011;76139;50.888;3.882;2024-03-06T09:14:33;8.57;;;6.45;;
85701;SDS011;76139;50.888;3.882;2024-03-06T09:16:59;9.73;;;7.45;;
85701;SDS011;76139;50.888;3.882;2024-03-06T09:19:25;8.98;;;7.00;;
85701;SDS011;76139;50.888;3.882;2024-03-06T09:21:51;9.20;;;6.82;;
85701;SDS011;76139;50.888;3.882;2024-03-06T09:24:17;8.95;;;7.15;;
85701;SDS011;76139;50.888;3.882;2024-03-06T09:26:45;9.95;;;7.13;;
85701;SDS011;76139;50.888;3.882;2024-03-06T09:29:12;10.15;;;6.70;;
85701;SDS011;76139;50.888;3.882;2024-03-06T09:31:37;8.85;;;6.68;;
85701;SDS011;76139;50.888;3.882;2024-03-06T09:34:03;10.57;;;6.75;;
85701;SDS011;76139;50.888;3.882;2024-03-06T09:36:29;11.35;;;7.30;;
85701;SDS011;76139;50.888;3.882;2024-03-06T09:38:55;8.57;;;6.43;;
85701;SDS011;76139;50.888;3.882;2024-03-06T09:41:21;9.23;;;6.38;;
85701;SDS011;76139;50.888;3.882;2024-03-06T09:43:47;8.80;;;6.40;;
85701;SDS011;76139;50.888;3.882;2024-03-06T09:46:13;8.80;;;6.90;;
85701;SDS011;76139;50.888;3.882;2024-03-06T09:48:47;8.20;;;6.20;;
85701;SDS011;76139;50.888;3.882;2024-03-06T09:53:40;7.35;;;5.85;;
85701;SDS011;76139;50.888;3.882;2024-03-06T09:56:09;8.77;;;6.10;;
85701;SDS011;76139;50.888;3.882;2024-03-06T09:58:35;10.15;;;6.18;;
85701;SDS011;76139;50.888;3.882;2024-03-06T10:01:01;9.18;;;6.50;;
85701;SDS011;76139;50.888;3.882;2024-03-06T10:03:29;8.63;;;6.32;;
85701;SDS011;76139;50.888;3.882;2024-03-06T10:05:55;7.32;;;5.97;;
85701;SDS011;76139;50.888;3.882;2024-03-06T10:08:21;9.48;;;5.93;;
85701;SDS011;76139;50.888;3.882;2024-03-06T10:10:50;7.88;;;5.60;;
85701;SDS011;76139;50.888;3.882;2024-03-06T10:13:22;8.68;;;5.88;;
85701;SDS011;76139;50.888;3.882;2024-03-06T10:15:58;8.82;;;6.18;;
85701;SDS011;76139;50.888;3.882;2024-03-06T10:18:29;8.10;;;5.85;;
85701;SDS011;76139;50.888;3.882;2024-03-06T10:20:57;8.55;;;5.57;;
85701;SDS011;76139;50.888;3.882;2024-03-06T10:23:23;9.07;;;5.75;;
85701;SDS011;76139;50.888;3.882;2024-03-06T10:25:50;7.30;;;5.28;;
85701;SDS011;76139;50.888;3.882;2024-03-06T10:28:18;8.80;;;5.90;;
85701;SDS011;76139;50.888;3.882;2024-03-06T10:30:44;8.18;;;5.50;;
85701;SDS011;76139;50.888;3.882;2024-03-06T10:33:11;7.70;;;5.55;;
85701;SDS011;76139;50.888;3.882;2024-03-06T10:35:39;9.43;;;5.78;;
85701;SDS011;76139;50.888;3.882;2024-03-06T10:38:07;9.48;;;6.82;;
85701;SDS011;76139;50.888;3.882;2024-03-06T10:40:37;8.98;;;6.40;;
85701;SDS011;76139;50.888;3.882;2024-03-06T10:43:04;7.60;;;5.38;;
85701;SDS011;76139;50.888;3.882;2024-03-06T10:45:41;9.50;;;6.25;;
85701;SDS011;76139;50.888;3.882;2024-03-06T10:48:15;8.55;;;5.55;;
85701;SDS011;76139;50.888;3.882;2024-03-06T10:50:43;9.35;;;6.07;;
85701;SDS011;76139;50.888;3.882;2024-03-06T10:53:14;7.60;;;5.13;;
85701;SDS011;76139;50.888;3.882;2024-03-06T10:55:42;7.50;;;4.80;;
85701;SDS011;76139;50.888;3.882;2024-03-06T10:58:12;7.88;;;5.05;;
85701;SDS011;76139;50.888;3.882;2024-03-06T11:00:39;6.47;;;4.05;;
85701;SDS011;76139;50.888;3.882;2024-03-06T11:05:38;6.75;;;4.63;;
85701;SDS011;76139;50.888;3.882;2024-03-06T11:08:07;6.18;;;4.43;;
85701;SDS011;76139;50.888;3.882;2024-03-06T11:10:38;6.57;;;4.68;;
85701;SDS011;76139;50.888;3.882;2024-03-06T11:15:48;7.43;;;4.57;;
85701;SDS011;76139;50.888;3.882;2024-03-06T11:23:34;5.80;;;4.10;;
85701;SDS011;76139;50.888;3.882;2024-03-06T11:26:03;4.35;;;3.35;;
85701;SDS011;76139;50.888;3.882;2024-03-06T11:28:31;4.97;;;3.42;;
85701;SDS011;76139;50.888;3.882;2024-03-06T11:33:39;7.55;;;4.07;;
85701;SDS011;76139;50.888;3.882;2024-03-06T11:41:28;9.48;;;4.82;;
85701;SDS011;76139;50.888;3.882;2024-03-06T11:43:56;7.07;;;5.00;;
85701;SDS011;76139;50.888;3.882;2024-03-06T11:49:28;6.67;;;4.47;;
85701;SDS011;76139;50.888;3.882;2024-03-06T11:51:58;8.40;;;4.97;;
85701;SDS011;76139;50.888;3.882;2024-03-06T11:54:30;7.70;;;4.75;;
85701;SDS011;76139;50.888;3.882;2024-03-06T11:56:58;8.73;;;5.32;;
85701;SDS011;76139;50.888;3.882;2024-03-06T11:59:33;10.18;;;5.20;;
85701;SDS011;76139;50.888;3.882;2024-03-06T12:02:01;6.72;;;5.10;;
85701;SDS011;76139;50.888;3.882;2024-03-06T12:04:33;7.78;;;5.25;;
85701;SDS011;76139;50.888;3.882;2024-03-06T12:07:02;8.18;;;5.22;;
85701;SDS011;76139;50.888;3.882;2024-03-06T12:09:31;12.23;;;5.07;;
85701;SDS011;76139;50.888;3.882;2024-03-06T12:11:58;7.60;;;4.80;;
85701;SDS011;76139;50.888;3.882;2024-03-06T12:14:25;10.65;;;4.78;;
85701;SDS011;76139;50.888;3.882;2024-03-06T12:16:58;10.30;;;4.50;;
85701;SDS011;76139;50.888;3.882;2024-03-06T12:19:28;10.40;;;5.25;;
85701;SDS011;76139;50.888;3.882;2024-03-06T12:22:00;7.80;;;4.07;;
85701;SDS011;76139;50.888;3.882;2024-03-06T12:24:29;7.90;;;4.60;;
85701;SDS011;76139;50.888;3.882;2024-03-06T12:26:59;6.28;;;3.97;;
85701;SDS011;76139;50.888;3.882;2024-03-06T12:29:27;6.72;;;4.05;;
85701;SDS011;76139;50.888;3.882;2024-03-06T12:31:55;9.65;;;4.28;;
85701;SDS011;76139;50.888;3.882;2024-03-06T12:34:22;6.05;;;3.42;;
85701;SDS011;76139;50.888;3.882;2024-03-06T12:36:48;6.28;;;3.40;;
85701;SDS011;76139;50.888;3.882;2024-03-06T12:39:15;6.80;;;3.88;;
85701;SDS011;76139;50.888;3.882;2024-03-06T12:41:46;8.75;;;4.50;;
85701;SDS011;76139;50.888;3.882;2024-03-06T12:44:12;9.45;;;4.55;;
85701;SDS011;76139;50.888;3.882;2024-03-06T12:46:40;6.70;;;3.92;;
85701;SDS011;76139;50.888;3.882;2024-03-06T12:49:06;8.75;;;4.00;;
85701;SDS011;76139;50.888;3.882;2024-03-06T12:51:31;7.43;;;3.47;;
85701;SDS011;76139;50.888;3.882;2024-03-06T12:53:57;6.53;;;3.25;;
85701;SDS011;76139;50.888;3.882;2024-03-06T12:56:23;9.90;;;4.00;;
85701;SDS011;76139;50.888;3.882;2024-03-06T12:58:50;5.90;;;3.83;;
85701;SDS011;76139;50.888;3.882;2024-03-06T13:01:16;6.63;;;3.97;;
85701;SDS011;76139;50.888;3.882;2024-03-06T13:03:42;9.68;;;3.72;;
85701;SDS011;76139;50.888;3.882;2024-03-06T13:06:08;6.13;;;2.95;;
85701;SDS011;76139;50.888;3.882;2024-03-06T13:08:35;5.80;;;3.22;;
85701;SDS011;76139;50.888;3.882;2024-03-06T13:11:01;6.63;;;3.45;;
85701;SDS011;76139;50.888;3.882;2024-03-06T13:13:27;7.78;;;3.13;;
85701;SDS011;76139;50.888;3.882;2024-03-06T13:15:57;6.15;;;3.40;;
85701;SDS011;76139;50.888;3.882;2024-03-06T13:18:23;8.82;;;3.22;;
85701;SDS011;76139;50.888;3.882;2024-03-06T13:20:50;5.00;;;3.03;;
85701;SDS011;76139;50.888;3.882;2024-03-06T13:23:16;5.93;;;3.00;;
85701;SDS011;76139;50.888;3.882;2024-03-06T13:25:42;5.65;;;3.28;;
85701;SDS011;76139;50.888;3.882;2024-03-06T13:28:08;5.18;;;2.75;;
85701;SDS011;76139;50.888;3.882;2024-03-06T13:30:34;4.80;;;2.83;;
85701;SDS011;76139;50.888;3.882;2024-03-06T13:33:00;6.40;;;3.20;;
85701;SDS011;76139;50.888;3.882;2024-03-06T13:35:26;5.95;;;3.55;;
85701;SDS011;76139;50.888;3.882;2024-03-06T13:37:52;8.80;;;3.30;;
85701;SDS011;76139;50.888;3.882;2024-03-06T13:40:19;6.50;;;3.53;;
85701;SDS011;76139;50.888;3.882;2024-03-06T13:42:44;6.13;;;3.00;;
85701;SDS011;76139;50.888;3.882;2024-03-06T13:45:11;6.20;;;3.13;;
85701;SDS011;76139;50.888;3.882;2024-03-06T13:47:37;6.00;;;2.80;;
85701;SDS011;76139;50.888;3.882;2024-03-06T13:50:06;6.93;;;2.92;;
85701;SDS011;76139;50.888;3.882;2024-03-06T13:52:33;5.75;;;2.92;;
85701;SDS011;76139;50.888;3.882;2024-03-06T13:54:59;5.38;;;2.90;;
85701;SDS011;76139;50.888;3.882;2024-03-06T13:57:27;9.25;;;3.88;;
85701;SDS011;76139;50.888;3.882;2024-03-06T13:59:53;5.43;;;3.15;;
85701;SDS011;76139;50.888;3.882;2024-03-06T14:02:19;5.43;;;2.42;;
85701;SDS011;76139;50.888;3.882;2024-03-06T14:04:46;8.10;;;3.50;;
85701;SDS011;76139;50.888;3.882;2024-03-06T14:07:11;8.13;;;3.88;;
85701;SDS011;76139;50.888;3.882;2024-03-06T14:09:37;7.00;;;3.53;;
85701;SDS011;76139;50.888;3.882;2024-03-06T14:12:06;9.00;;;3.55;;
85701;SDS011;76139;50.888;3.882;2024-03-06T14:14:32;10.13;;;3.63;;
85701;SDS011;76139;50.888;3.882;2024-03-06T14:16:58;7.35;;;3.55;;
85701;SDS011;76139;50.888;3.882;2024-03-06T14:19:23;5.15;;;3.10;;
85701;SDS011;76139;50.888;3.882;2024-03-06T14:21:50;9.30;;;3.88;;
85701;SDS011;76139;50.888;3.882;2024-03-06T14:24:16;5.90;;;3.45;;
85701;SDS011;76139;50.888;3.882;2024-03-06T14:26:42;7.30;;;3.20;;
85701;SDS011;76139;50.888;3.882;2024-03-06T14:29:07;6.95;;;3.60;;
85701;SDS011;76139;50.888;3.882;2024-03-06T14:31:34;7.32;;;3.40;;
85701;SDS011;76139;50.888;3.882;2024-03-06T14:34:00;7.25;;;3.25;;
85701;SDS011;76139;50.888;3.882;2024-03-06T14:36:26;10.00;;;3.70;;
85701;SDS011;76139;50.888;3.882;2024-03-06T14:38:52;6.80;;;3.17;;
85701;SDS011;76139;50.888;3.882;2024-03-06T14:41:18;7.10;;;3.53;;
85701;SDS011;76139;50.888;3.882;2024-03-06T14:43:45;5.07;;;2.83;;
85701;SDS011;76139;50.888;3.882;2024-03-06T14:46:11;9.80;;;3.45;;
85701;SDS011;76139;50.888;3.882;2024-03-06T14:48:37;5.18;;;3.28;;
85701;SDS011;76139;50.888;3.882;2024-03-06T14:51:04;5.68;;;2.83;;
85701;SDS011;76139;50.888;3.882;2024-03-06T14:53:30;6.28;;;2.72;;
85701;SDS011;76139;50.888;3.882;2024-03-06T14:55:56;5.43;;;2.85;;
85701;SDS011;76139;50.888;3.882;2024-03-06T14:58:22;4.78;;;3.10;;